createdAt,value
2023-05-20T00:01:18.758Z,7.80
2023-05-20T00:03:46.706Z,8.50
2023-05-20T00:06:13.990Z,8.50
2023-05-20T00:08:41.125Z,8.00
2023-05-20T00:11:08.189Z,8.60
2023-05-20T00:13:36.324Z,8.00
2023-05-20T00:16:03.448Z,7.80
2023-05-20T00:18:30.985Z,7.30
2023-05-20T00:20:58.081Z,6.90
2023-05-20T00:23:25.076Z,6.90
2023-05-20T00:25:52.107Z,6.80
2023-05-20T00:28:20.068Z,6.70
2023-05-20T00:30:47.316Z,7.30
2023-05-20T00:33:14.416Z,6.50
2023-05-20T00:35:41.483Z,6.70
2023-05-20T00:38:08.522Z,7.00
2023-05-20T00:40:35.646Z,6.70
2023-05-20T00:43:03.318Z,6.40
2023-05-20T00:45:31.424Z,6.60
2023-05-20T00:48:01.774Z,6.60
2023-05-20T00:50:29.023Z,6.10
2023-05-20T00:52:56.414Z,6.60
2023-05-20T00:55:23.468Z,5.90
2023-05-20T00:57:53.209Z,6.60
2023-05-20T01:00:20.400Z,6.90
2023-05-20T01:02:48.150Z,5.80
2023-05-20T01:05:16.698Z,6.20
2023-05-20T01:07:44.213Z,7.10
2023-05-20T01:10:11.773Z,6.60
2023-05-20T01:12:54.667Z,6.40
2023-05-20T01:15:22.701Z,6.70
2023-05-20T01:17:53.124Z,6.40
2023-05-20T01:20:20.901Z,6.40
2023-05-20T01:22:48.880Z,6.70
2023-05-20T01:25:16.087Z,6.10
2023-05-20T01:27:44.207Z,6.20
2023-05-20T01:30:11.631Z,6.20
2023-05-20T01:32:40.758Z,6.10
2023-05-20T01:35:08.620Z,6.30
2023-05-20T01:37:40.367Z,5.70
2023-05-20T01:40:09.035Z,5.80
2023-05-20T01:42:36.266Z,6.20
2023-05-20T01:45:06.308Z,6.60
2023-05-20T01:47:33.459Z,6.20
2023-05-20T01:50:00.692Z,6.10
2023-05-20T01:52:27.882Z,5.90
2023-05-20T01:54:54.901Z,6.00
2023-05-20T01:57:22.349Z,6.20
2023-05-20T01:59:50.234Z,5.50
2023-05-20T02:02:17.536Z,5.40
2023-05-20T02:04:49.137Z,5.90
2023-05-20T02:07:16.716Z,5.50
2023-05-20T02:09:43.776Z,6.00
2023-05-20T02:12:16.483Z,5.80
2023-05-20T02:14:47.872Z,5.70
2023-05-20T02:17:18.131Z,5.60
2023-05-20T02:19:46.036Z,5.60
2023-05-20T02:22:13.993Z,5.70
2023-05-20T02:24:41.852Z,5.20
2023-05-20T02:27:09.644Z,5.00
2023-05-20T02:29:39.301Z,5.50
2023-05-20T02:32:06.821Z,5.40
2023-05-20T02:34:33.969Z,5.10
2023-05-20T02:37:01.579Z,5.00
2023-05-20T02:39:29.445Z,4.90
2023-05-20T02:41:56.632Z,5.50
2023-05-20T02:44:24.162Z,5.10
2023-05-20T02:46:51.574Z,4.90
2023-05-20T02:49:18.625Z,5.00
2023-05-20T02:51:45.849Z,4.80
2023-05-20T02:54:12.886Z,5.30
2023-05-20T02:56:39.944Z,5.80
2023-05-20T02:59:07.632Z,4.70
2023-05-20T03:01:36.247Z,5.00
2023-05-20T03:04:03.627Z,5.30
2023-05-20T03:06:32.182Z,4.40
2023-05-20T03:08:59.694Z,4.80
2023-05-20T03:11:26.907Z,5.00
2023-05-20T03:13:53.963Z,4.90
2023-05-20T03:16:21.102Z,5.00
2023-05-20T03:18:48.970Z,5.10
2023-05-20T03:21:17.317Z,4.80
2023-05-20T03:23:44.407Z,4.80
2023-05-20T03:26:11.766Z,5.00
2023-05-20T03:28:39.691Z,4.90
2023-05-20T03:31:07.487Z,5.30
2023-05-20T03:33:35.736Z,5.20
2023-05-20T03:36:02.982Z,4.80
2023-05-20T03:38:30.893Z,5.50
2023-05-20T03:40:58.034Z,5.30
2023-05-20T03:43:25.766Z,5.40
2023-05-20T03:45:52.804Z,5.60
2023-05-20T03:48:20.455Z,4.90
2023-05-20T03:50:49.543Z,4.80
2023-05-20T03:53:17.646Z,5.00
2023-05-20T03:55:44.716Z,5.20
2023-05-20T03:58:13.811Z,5.10
2023-05-20T04:00:41.390Z,5.00
2023-05-20T04:03:09.002Z,5.40
2023-05-20T04:05:37.176Z,5.20
2023-05-20T04:08:07.478Z,5.40
2023-05-20T04:10:34.891Z,5.40
2023-05-20T04:13:02.221Z,4.70
2023-05-20T04:15:30.012Z,4.80
2023-05-20T04:17:58.138Z,5.10
2023-05-20T04:20:25.505Z,5.30
2023-05-20T04:22:55.430Z,5.20
2023-05-20T04:25:22.617Z,5.80
2023-05-20T04:27:50.347Z,5.30
2023-05-20T04:30:18.746Z,5.20
2023-05-20T04:32:45.949Z,5.30
2023-05-20T04:35:14.119Z,5.20
2023-05-20T04:37:54.219Z,5.10
2023-05-20T04:40:21.833Z,5.70
2023-05-20T04:42:49.104Z,5.10
2023-05-20T04:45:16.138Z,5.40
2023-05-20T04:47:44.602Z,5.20
2023-05-20T04:50:11.973Z,5.10
2023-05-20T04:52:42.076Z,5.20
2023-05-20T04:55:10.479Z,5.60
2023-05-20T04:57:40.342Z,5.80
2023-05-20T05:00:11.831Z,5.40
2023-05-20T05:02:39.831Z,5.40
2023-05-20T05:05:07.636Z,5.50
2023-05-20T05:07:34.896Z,5.70
2023-05-20T05:10:01.970Z,5.30
2023-05-20T05:12:30.564Z,5.60
2023-05-20T05:14:58.987Z,5.60
2023-05-20T05:17:26.451Z,5.20
2023-05-20T05:19:53.467Z,4.60
2023-05-20T05:22:20.819Z,5.20
2023-05-20T05:24:49.379Z,5.40
2023-05-20T05:27:16.427Z,5.50
2023-05-20T05:29:43.398Z,5.70
2023-05-20T05:32:11.686Z,5.60
2023-05-20T05:34:39.289Z,5.60
2023-05-20T05:37:06.448Z,5.40
2023-05-20T05:39:34.892Z,5.50
2023-05-20T05:42:02.019Z,5.40
2023-05-20T05:44:29.153Z,5.30
2023-05-20T05:46:57.829Z,4.80
2023-05-20T05:49:24.935Z,4.50
2023-05-20T05:51:52.546Z,4.60
2023-05-20T05:54:22.164Z,4.60
2023-05-20T05:56:51.575Z,4.50
2023-05-20T05:59:19.481Z,4.70
2023-05-20T06:01:46.571Z,5.10
2023-05-20T06:04:15.294Z,4.90
2023-05-20T06:06:42.443Z,4.80
2023-05-20T06:09:09.595Z,4.90
2023-05-20T06:11:36.802Z,5.00
2023-05-20T06:14:03.840Z,4.90
2023-05-20T06:16:31.428Z,4.90
2023-05-20T06:19:02.659Z,4.80
2023-05-20T06:21:32.811Z,4.90
2023-05-20T06:24:01.034Z,4.50
2023-05-20T06:26:28.085Z,4.90
2023-05-20T06:28:56.581Z,5.20
2023-05-20T06:31:23.788Z,4.80
2023-05-20T06:33:51.754Z,4.80
2023-05-20T06:36:18.906Z,4.50
2023-05-20T06:38:46.781Z,4.30
2023-05-20T06:41:15.270Z,4.50
2023-05-20T06:43:42.408Z,4.90
2023-05-20T06:46:38.828Z,4.70
2023-05-20T06:49:09.805Z,4.10
2023-05-20T06:51:36.919Z,4.30
2023-05-20T06:54:04.435Z,4.00
2023-05-20T06:56:31.488Z,4.10
2023-05-20T06:58:59.366Z,4.30
2023-05-20T07:01:26.624Z,4.20
2023-05-20T07:03:53.838Z,4.30
2023-05-20T07:06:21.038Z,4.80
2023-05-20T07:08:48.336Z,4.50
2023-05-20T07:11:15.871Z,4.10
2023-05-20T07:13:43.013Z,4.20
2023-05-20T07:16:10.182Z,4.20
2023-05-20T07:18:39.884Z,4.20
2023-05-20T07:21:06.977Z,4.30
2023-05-20T07:24:00.035Z,4.80
2023-05-20T07:26:27.330Z,4.50
2023-05-20T07:28:55.028Z,4.10
2023-05-20T07:31:24.409Z,4.50
2023-05-20T07:33:51.636Z,3.90
2023-05-20T07:36:18.646Z,4.30
2023-05-20T07:39:00.985Z,4.50
2023-05-20T07:41:32.258Z,4.70
2023-05-20T07:43:59.626Z,4.30
2023-05-20T07:46:27.399Z,4.40
2023-05-20T07:48:54.511Z,4.60
2023-05-20T07:51:21.610Z,4.10
2023-05-20T07:53:48.834Z,4.20
2023-05-20T07:56:16.685Z,4.10
2023-05-20T07:58:43.756Z,4.50
2023-05-20T08:01:11.888Z,4.00
2023-05-20T08:03:39.023Z,4.20
2023-05-20T08:06:10.435Z,4.40
2023-05-20T08:08:37.945Z,4.30
2023-05-20T08:11:10.057Z,4.30
2023-05-20T08:13:39.079Z,4.60
2023-05-20T08:16:06.712Z,4.50
2023-05-20T08:18:38.127Z,4.50
2023-05-20T08:21:06.734Z,4.70
2023-05-20T08:23:36.802Z,4.70
2023-05-20T08:26:06.743Z,4.70
2023-05-20T08:28:34.253Z,4.30
2023-05-20T08:31:04.364Z,4.50
2023-05-20T08:33:31.876Z,4.60
2023-05-20T08:35:59.436Z,4.30
2023-05-20T08:38:28.334Z,3.80
2023-05-20T08:40:57.077Z,3.60
2023-05-20T08:43:25.193Z,3.90
2023-05-20T08:45:55.211Z,3.90
2023-05-20T08:48:25.992Z,4.40
2023-05-20T08:50:53.214Z,4.20
2023-05-20T08:53:21.327Z,3.80
2023-05-20T08:55:54.498Z,4.30
2023-05-20T08:58:23.638Z,4.10
2023-05-20T09:00:51.539Z,3.80
2023-05-20T09:03:20.497Z,3.90
2023-05-20T09:05:48.139Z,3.40
2023-05-20T09:08:16.427Z,3.30
2023-05-20T09:10:43.487Z,3.10
2023-05-20T09:13:11.026Z,3.00
2023-05-20T09:15:39.578Z,3.30
2023-05-20T09:18:07.730Z,3.50
2023-05-20T09:20:37.637Z,3.30
2023-05-20T09:23:06.595Z,3.10
2023-05-20T09:25:34.302Z,3.10
2023-05-20T09:28:01.575Z,2.80
2023-05-20T09:30:28.671Z,2.60
2023-05-20T09:32:56.733Z,3.10
2023-05-20T09:35:24.709Z,2.60
2023-05-20T09:37:58.518Z,2.70
2023-05-20T09:40:29.115Z,2.60
2023-05-20T09:43:08.941Z,3.10
2023-05-20T09:45:36.457Z,2.40
2023-05-20T09:48:04.245Z,3.00
2023-05-20T09:50:31.594Z,2.70
2023-05-20T09:53:02.962Z,2.70
2023-05-20T09:55:30.325Z,3.10
2023-05-20T09:57:57.426Z,2.40
2023-05-20T10:00:24.461Z,2.60
2023-05-20T10:02:52.500Z,2.70
2023-05-20T10:05:24.794Z,3.00
2023-05-20T10:07:56.878Z,2.60
2023-05-20T10:10:34.338Z,2.50
2023-05-20T10:13:30.922Z,2.40
2023-05-20T10:16:07.230Z,2.50
2023-05-20T10:19:07.508Z,2.60
2023-05-20T10:21:34.513Z,2.60
2023-05-20T10:24:11.156Z,3.50
2023-05-20T10:26:42.452Z,2.80
2023-05-20T10:29:19.001Z,2.60
2023-05-20T10:31:51.082Z,2.30
2023-05-20T10:34:22.350Z,2.40
2023-05-20T10:36:59.571Z,2.40
2023-05-20T10:39:28.922Z,2.60
2023-05-20T10:42:09.419Z,2.30
2023-05-20T10:44:44.302Z,2.50
2023-05-20T10:49:45.176Z,2.50
2023-05-20T10:52:13.600Z,2.10
2023-05-20T10:54:45.211Z,2.30
2023-05-20T10:57:12.464Z,2.60
2023-05-20T10:59:39.562Z,2.30
2023-05-20T11:02:06.609Z,2.20
2023-05-20T11:04:35.995Z,2.60
2023-05-20T11:07:03.301Z,2.40
2023-05-20T11:09:32.073Z,2.30
2023-05-20T11:11:59.136Z,2.20
2023-05-20T11:14:28.770Z,2.30
2023-05-20T11:16:59.527Z,2.20
2023-05-20T11:19:27.929Z,2.60
2023-05-20T11:21:55.234Z,2.30
2023-05-20T11:24:29.412Z,2.60
2023-05-20T11:26:57.684Z,2.30
2023-05-20T11:29:26.429Z,2.20
2023-05-20T11:31:53.585Z,2.50
2023-05-20T11:34:24.133Z,2.50
2023-05-20T11:36:57.453Z,2.50
2023-05-20T11:39:25.142Z,2.60
2023-05-20T11:41:52.310Z,2.10
2023-05-20T11:44:22.470Z,2.50
2023-05-20T11:46:49.526Z,2.40
2023-05-20T11:49:16.772Z,2.30
2023-05-20T11:51:44.055Z,2.90
2023-05-20T11:54:11.566Z,2.60
2023-05-20T11:56:39.034Z,2.40
2023-05-20T11:59:06.732Z,2.80
2023-05-20T12:01:40.960Z,2.60
2023-05-20T12:04:08.551Z,2.60
2023-05-20T12:06:37.585Z,2.40
2023-05-20T12:09:07.452Z,2.60
2023-05-20T12:11:39.968Z,2.30
2023-05-20T12:14:08.093Z,2.80
2023-05-20T12:16:37.275Z,2.40
2023-05-20T12:19:04.852Z,2.40
2023-05-20T12:21:32.194Z,2.40
2023-05-20T12:23:59.812Z,2.50
2023-05-20T12:26:28.010Z,2.50
2023-05-20T12:28:55.287Z,2.70
2023-05-20T12:31:23.839Z,2.60
2023-05-20T12:33:51.042Z,2.30
2023-05-20T12:36:19.970Z,3.00
2023-05-20T12:38:47.235Z,2.70
2023-05-20T12:41:14.270Z,2.70
2023-05-20T12:43:41.417Z,2.70
2023-05-20T12:46:08.499Z,3.00
2023-05-20T12:48:35.836Z,2.80
2023-05-20T12:51:03.142Z,2.40
2023-05-20T12:53:30.172Z,2.60
2023-05-20T12:55:57.213Z,2.70
2023-05-20T12:58:24.439Z,2.50
2023-05-20T13:00:51.536Z,2.70
2023-05-20T13:03:18.770Z,2.70
2023-05-20T13:05:46.112Z,2.50
2023-05-20T13:08:15.517Z,2.70
2023-05-20T13:10:43.071Z,2.60
2023-05-20T13:13:10.153Z,3.00
2023-05-20T13:15:37.214Z,2.90
2023-05-20T13:18:06.684Z,2.70
2023-05-20T13:20:34.321Z,2.70
2023-05-20T13:23:01.684Z,2.50
2023-05-20T13:25:29.457Z,2.50
2023-05-20T13:27:56.667Z,2.50
2023-05-20T13:30:23.751Z,2.60
2023-05-20T13:32:52.213Z,2.70
2023-05-20T13:35:19.329Z,2.70
2023-05-20T13:37:46.447Z,2.50
2023-05-20T13:40:13.555Z,2.90
2023-05-20T13:42:40.660Z,2.80
2023-05-20T13:45:08.229Z,2.50
2023-05-20T13:47:35.315Z,2.20
2023-05-20T13:50:03.401Z,2.10
2023-05-20T13:52:30.890Z,2.00
2023-05-20T13:54:57.917Z,2.00
2023-05-20T13:57:24.964Z,1.80
2023-05-20T13:59:51.937Z,2.10
2023-05-20T14:02:19.343Z,2.10
2023-05-20T14:04:47.367Z,2.00
2023-05-20T14:07:14.447Z,2.00
2023-05-20T14:09:41.509Z,2.00
2023-05-20T14:12:09.103Z,1.90
2023-05-20T14:14:36.304Z,2.00
2023-05-20T14:17:03.421Z,1.90
2023-05-20T14:19:31.060Z,1.90
2023-05-20T14:22:01.359Z,2.00
2023-05-20T14:24:28.581Z,1.80
2023-05-20T14:26:55.653Z,1.90
2023-05-20T14:29:22.685Z,1.50
2023-05-20T14:31:49.871Z,2.20
2023-05-20T14:34:16.947Z,2.10
2023-05-20T14:36:44.544Z,2.20
2023-05-20T14:39:11.531Z,1.70
2023-05-20T14:41:38.598Z,1.90
2023-05-20T14:44:05.911Z,2.70
2023-05-20T14:46:32.983Z,2.10
2023-05-20T14:49:00.428Z,1.90
2023-05-20T14:51:27.561Z,1.80
2023-05-20T14:53:54.615Z,1.40
2023-05-20T14:56:21.893Z,1.90
2023-05-20T14:58:48.848Z,1.70
2023-05-20T15:01:16.021Z,1.60
2023-05-20T15:03:43.152Z,1.90
2023-05-20T15:06:12.108Z,1.70
2023-05-20T15:08:39.148Z,1.90
2023-05-20T15:11:06.290Z,1.80
2023-05-20T15:13:33.287Z,1.80
2023-05-20T15:16:00.458Z,1.50
2023-05-20T15:18:27.538Z,1.40
2023-05-20T15:20:54.570Z,2.10
2023-05-20T15:23:21.649Z,1.90
2023-05-20T15:25:50.593Z,1.70
2023-05-20T15:28:19.912Z,1.50
2023-05-20T15:30:51.287Z,1.50
2023-05-20T15:33:18.378Z,1.50
2023-05-20T15:35:45.969Z,1.60
2023-05-20T15:38:13.798Z,1.60
2023-05-20T15:40:42.411Z,1.70
2023-05-20T15:43:09.503Z,1.80
2023-05-20T15:45:36.623Z,1.90
2023-05-20T15:48:03.854Z,1.60
2023-05-20T15:50:31.192Z,2.10
2023-05-20T15:52:58.259Z,2.10
2023-05-20T15:55:25.311Z,2.00
2023-05-20T15:57:52.395Z,2.00
2023-05-20T16:00:21.335Z,2.00
2023-05-20T16:02:48.710Z,2.40
2023-05-20T16:05:16.081Z,2.30
2023-05-20T16:07:43.143Z,1.90
2023-05-20T16:10:10.801Z,2.30
2023-05-20T16:12:37.955Z,2.00
2023-05-20T16:15:05.395Z,2.40
2023-05-20T16:17:32.480Z,2.20
2023-05-20T16:19:59.519Z,2.30
2023-05-20T16:22:26.598Z,2.70
2023-05-20T16:24:53.748Z,2.70
2023-05-20T16:27:20.799Z,2.60
2023-05-20T16:29:47.829Z,2.40
2023-05-20T16:32:14.986Z,2.30
2023-05-20T16:34:42.001Z,2.30
2023-05-20T16:37:10.312Z,2.60
2023-05-20T16:39:37.364Z,2.40
2023-05-20T16:42:04.579Z,2.50
2023-05-20T16:44:31.667Z,2.60
2023-05-20T16:46:58.707Z,2.40
2023-05-20T16:49:25.727Z,2.20
2023-05-20T16:51:52.929Z,2.20
2023-05-20T16:54:20.086Z,2.20
2023-05-20T16:56:49.800Z,2.50
2023-05-20T16:59:17.226Z,2.50
2023-05-20T17:01:44.700Z,2.40
2023-05-20T17:04:11.944Z,2.40
2023-05-20T17:06:39.995Z,2.60
2023-05-20T17:09:07.429Z,2.60
2023-05-20T17:11:34.639Z,2.70
2023-05-20T17:14:01.714Z,2.80
2023-05-20T17:16:28.991Z,3.00
2023-05-20T17:18:56.515Z,2.80
2023-05-20T17:21:23.607Z,2.60
2023-05-20T17:23:51.317Z,2.90
2023-05-20T17:26:18.381Z,2.70
2023-05-20T17:28:45.764Z,3.10
2023-05-20T17:31:14.037Z,2.70
2023-05-20T17:33:41.307Z,2.60
2023-05-20T17:36:08.390Z,2.90
2023-05-20T17:38:36.125Z,3.40
2023-05-20T17:41:03.144Z,2.70
2023-05-20T17:43:31.644Z,3.40
2023-05-20T17:45:58.748Z,2.80
2023-05-20T17:48:25.849Z,2.80
2023-05-20T17:50:52.897Z,2.70
2023-05-20T17:53:22.039Z,3.20
2023-05-20T17:55:49.622Z,2.80
2023-05-20T17:58:17.096Z,2.70
2023-05-20T18:00:44.297Z,2.80
2023-05-20T18:03:11.553Z,3.00
2023-05-20T18:05:38.661Z,2.80
2023-05-20T18:08:05.744Z,2.30
2023-05-20T18:10:33.218Z,2.70
2023-05-20T18:13:01.427Z,2.60
2023-05-20T18:15:28.548Z,2.40
2023-05-20T18:17:55.708Z,2.60
2023-05-20T18:20:22.931Z,3.10
2023-05-20T18:22:52.425Z,2.60
2023-05-20T18:25:19.404Z,2.80
2023-05-20T18:27:46.500Z,2.40
2023-05-20T18:30:13.538Z,2.60
2023-05-20T18:32:40.768Z,2.60
2023-05-20T18:35:08.310Z,2.80
2023-05-20T18:37:35.340Z,3.40
2023-05-20T18:40:02.473Z,3.20
2023-05-20T18:42:29.481Z,3.20
2023-05-20T18:44:56.707Z,3.20
2023-05-20T18:47:23.798Z,3.40
2023-05-20T18:49:51.061Z,3.00
2023-05-20T18:52:18.218Z,3.20
2023-05-20T18:54:45.187Z,3.10
2023-05-20T18:57:12.309Z,2.80
2023-05-20T18:59:39.346Z,2.60
2023-05-20T19:02:06.396Z,2.90
2023-05-20T19:04:33.382Z,3.60
2023-05-20T19:07:01.766Z,3.60
2023-05-20T19:09:28.767Z,3.10
2023-05-20T19:11:59.309Z,3.10
2023-05-20T19:14:26.462Z,3.50
2023-05-20T19:16:53.613Z,3.60
2023-05-20T19:19:20.811Z,3.60
2023-05-20T19:21:49.377Z,3.60
2023-05-20T19:24:17.890Z,3.30
2023-05-20T19:26:45.326Z,3.30
2023-05-20T19:29:12.360Z,4.10
2023-05-20T19:31:45.720Z,4.50
2023-05-20T19:34:13.126Z,4.50
2023-05-20T19:36:42.906Z,5.20
2023-05-20T19:39:10.210Z,4.40
2023-05-20T19:41:38.744Z,4.60
2023-05-20T19:44:06.443Z,5.70
2023-05-20T19:46:33.702Z,5.30
2023-05-20T19:49:02.278Z,5.30
2023-05-20T19:51:29.312Z,5.30
2023-05-20T19:53:57.683Z,5.70
2023-05-20T19:56:24.928Z,6.20
2023-05-20T19:58:52.114Z,6.00
2023-05-20T20:01:19.144Z,6.40
2023-05-20T20:03:46.270Z,5.80
2023-05-20T20:06:16.267Z,5.30
2023-05-20T20:08:46.208Z,6.30
2023-05-20T20:11:13.363Z,5.40
2023-05-20T20:13:40.372Z,5.90
2023-05-20T20:16:07.994Z,6.20
2023-05-20T20:18:36.272Z,6.70
2023-05-20T20:21:06.493Z,6.10
2023-05-20T20:23:36.995Z,6.50
2023-05-20T20:26:05.921Z,6.10
2023-05-20T20:28:32.940Z,7.00
2023-05-20T20:30:59.972Z,6.30
2023-05-20T20:33:27.888Z,7.20
2023-05-20T20:35:57.076Z,7.20
2023-05-20T20:38:24.270Z,6.00
2023-05-20T20:40:54.111Z,6.10
2023-05-20T20:43:23.020Z,5.90
2023-05-20T20:45:53.337Z,6.00
2023-05-20T20:48:20.434Z,5.30
2023-05-20T20:50:48.340Z,5.60
2023-05-20T20:53:18.450Z,5.00
2023-05-20T20:55:48.549Z,4.60
2023-05-20T20:58:15.800Z,4.90
2023-05-20T21:00:44.835Z,4.80
2023-05-20T21:03:13.239Z,4.20
2023-05-20T21:05:40.505Z,4.70
2023-05-20T21:08:08.658Z,4.70
2023-05-20T21:10:37.382Z,4.30
2023-05-20T21:13:04.584Z,4.50
2023-05-20T21:15:31.605Z,4.60
2023-05-20T21:17:58.778Z,4.40
2023-05-20T21:20:25.850Z,4.50
2023-05-20T21:22:52.948Z,5.00
2023-05-20T21:25:20.058Z,4.30
2023-05-20T21:27:47.143Z,4.60
2023-05-20T21:30:16.049Z,4.20
2023-05-20T21:32:43.314Z,4.50
2023-05-20T21:35:10.430Z,3.90
2023-05-20T21:37:37.504Z,5.10
2023-05-20T21:40:05.023Z,4.40
2023-05-20T21:42:33.049Z,4.30
2023-05-20T21:45:00.258Z,4.00
2023-05-20T21:47:27.377Z,3.50
2023-05-20T21:49:54.498Z,4.00
2023-05-20T21:52:21.497Z,4.60
2023-05-20T21:54:48.659Z,3.60
2023-05-20T21:57:15.728Z,3.70
2023-05-20T21:59:42.791Z,3.90
2023-05-20T22:02:09.862Z,4.00
2023-05-20T22:04:37.487Z,3.60
2023-05-20T22:07:04.681Z,3.20
2023-05-20T22:09:31.808Z,3.30
2023-05-20T22:12:00.180Z,3.30
2023-05-20T22:14:27.633Z,2.90
2023-05-20T22:16:55.784Z,2.90
2023-05-20T22:19:22.823Z,2.70
2023-05-20T22:21:51.184Z,3.10
2023-05-20T22:24:18.391Z,2.50
2023-05-20T22:26:45.530Z,2.80
2023-05-20T22:29:12.554Z,2.60
2023-05-20T22:31:39.861Z,2.70
2023-05-20T22:34:06.949Z,2.20
2023-05-20T22:36:34.369Z,2.30
2023-05-20T22:39:02.397Z,2.40
2023-05-20T22:41:29.511Z,2.20
2023-05-20T22:43:57.515Z,2.60
2023-05-20T22:46:25.317Z,2.50
2023-05-20T22:48:53.278Z,2.50
2023-05-20T22:51:24.842Z,2.60
2023-05-20T22:53:52.148Z,2.20
2023-05-20T22:56:19.497Z,2.40
2023-05-20T22:58:46.626Z,2.20
2023-05-20T23:01:16.927Z,2.30
2023-05-20T23:03:47.024Z,2.60
2023-05-20T23:06:14.159Z,1.90
2023-05-20T23:08:45.377Z,2.40
2023-05-20T23:11:12.396Z,2.20
2023-05-20T23:13:39.450Z,2.10
2023-05-20T23:16:06.672Z,2.30
2023-05-20T23:18:33.806Z,2.40
2023-05-20T23:21:00.913Z,2.10
2023-05-20T23:23:31.700Z,2.70
2023-05-20T23:25:59.768Z,2.40
2023-05-20T23:28:26.893Z,2.30
2023-05-20T23:30:54.828Z,2.50
2023-05-20T23:33:26.559Z,2.20
2023-05-20T23:35:53.686Z,2.10
2023-05-20T23:38:21.761Z,2.50
2023-05-20T23:40:49.366Z,2.50
2023-05-20T23:43:16.499Z,2.10
2023-05-20T23:45:43.509Z,2.40
2023-05-20T23:48:13.737Z,2.40
2023-05-20T23:50:40.981Z,2.40
2023-05-20T23:53:08.025Z,2.60
2023-05-20T23:55:35.566Z,2.70
2023-05-20T23:58:02.794Z,2.90
